createdAt,value
2022-11-16T00:01:50.289Z,95.75
2022-11-16T00:04:18.011Z,95.66
2022-11-16T00:06:46.505Z,95.77
2022-11-16T00:09:23.262Z,95.83
2022-11-16T00:11:57.226Z,95.64
2022-11-16T00:14:27.930Z,95.13
2022-11-16T00:16:56.108Z,95.11
2022-11-16T00:19:24.679Z,94.93
2022-11-16T00:21:52.686Z,95.00
2022-11-16T00:24:22.376Z,95.27
2022-11-16T00:26:50.570Z,95.26
2022-11-16T00:29:24.048Z,95.24
2022-11-16T00:31:53.737Z,95.35
2022-11-16T00:34:22.800Z,95.20
2022-11-16T00:36:50.974Z,95.03
2022-11-16T00:39:19.787Z,95.00
2022-11-16T00:41:48.020Z,94.96
2022-11-16T00:44:16.359Z,94.95
2022-11-16T00:46:44.772Z,94.99
2022-11-16T00:49:12.161Z,94.82
2022-11-16T00:51:39.923Z,94.67
2022-11-16T00:54:09.307Z,94.59
2022-11-16T00:56:38.105Z,94.41
2022-11-16T00:59:05.856Z,94.43
2022-11-16T01:01:33.699Z,94.30
2022-11-16T01:04:01.285Z,94.26
2022-11-16T01:06:28.752Z,94.32
2022-11-16T01:08:56.420Z,94.11
2022-11-16T01:11:42.595Z,93.99
2022-11-16T01:14:11.096Z,94.01
2022-11-16T01:16:38.433Z,94.19
2022-11-16T01:19:06.372Z,94.19
2022-11-16T01:21:34.695Z,94.09
2022-11-16T01:24:02.333Z,94.18
2022-11-16T01:26:29.753Z,94.11
2022-11-16T01:28:59.692Z,94.08
2022-11-16T01:31:27.963Z,94.06
2022-11-16T01:33:55.489Z,93.75
2022-11-16T01:36:23.327Z,93.79
2022-11-16T01:38:50.815Z,93.87
2022-11-16T01:41:22.153Z,93.85
2022-11-16T01:43:52.730Z,93.56
2022-11-16T01:46:21.488Z,93.41
2022-11-16T01:49:08.395Z,93.01
2022-11-16T01:51:37.046Z,93.06
2022-11-16T01:54:12.511Z,93.17
2022-11-16T01:56:43.862Z,93.42
2022-11-16T01:59:12.840Z,93.49
2022-11-16T02:01:40.805Z,93.34
2022-11-16T02:04:11.357Z,93.41
2022-11-16T02:06:42.376Z,93.42
2022-11-16T02:09:50.768Z,93.33
2022-11-16T02:12:33.354Z,93.35
2022-11-16T02:15:29.495Z,93.18
2022-11-16T02:18:05.685Z,93.32
2022-11-16T02:20:52.313Z,92.95
2022-11-16T02:23:47.056Z,92.75
2022-11-16T02:26:26.719Z,92.58
2022-11-16T02:29:25.330Z,92.73
2022-11-16T02:32:14.474Z,92.47
2022-11-16T02:34:47.410Z,92.32
2022-11-16T02:37:19.231Z,92.53
2022-11-16T02:39:52.799Z,92.54
2022-11-16T02:42:28.676Z,92.46
2022-11-16T02:44:59.681Z,92.63
2022-11-16T02:47:31.930Z,92.75
2022-11-16T02:50:05.380Z,92.72
2022-11-16T02:52:32.810Z,92.86
2022-11-16T02:55:00.488Z,92.99
2022-11-16T02:57:37.012Z,92.99
2022-11-16T03:00:07.687Z,93.21
2022-11-16T03:03:00.920Z,93.23
2022-11-16T03:05:34.899Z,93.52
2022-11-16T03:08:24.962Z,93.43
2022-11-16T03:11:21.868Z,93.44
2022-11-16T03:13:51.106Z,93.42
2022-11-16T03:16:33.668Z,93.47
2022-11-16T03:19:05.695Z,93.52
2022-11-16T03:21:40.086Z,93.42
2022-11-16T03:24:08.784Z,93.46
2022-11-16T03:27:06.141Z,93.18
2022-11-16T03:29:40.978Z,93.26
2022-11-16T03:32:27.444Z,93.26
2022-11-16T03:35:06.725Z,93.29
2022-11-16T03:37:35.726Z,93.25
2022-11-16T03:40:06.317Z,93.10
2022-11-16T03:42:34.867Z,92.89
2022-11-16T03:45:04.188Z,93.01
2022-11-16T03:47:31.602Z,92.90
2022-11-16T03:49:59.337Z,93.13
2022-11-16T03:52:27.010Z,93.13
2022-11-16T03:54:54.695Z,92.89
2022-11-16T03:57:24.107Z,92.86
2022-11-16T03:59:51.786Z,92.67
2022-11-16T04:02:19.289Z,92.79
2022-11-16T04:05:07.259Z,92.83
2022-11-16T04:07:53.611Z,92.77
2022-11-16T04:10:39.963Z,92.88
2022-11-16T04:13:31.339Z,92.96
2022-11-16T04:16:17.701Z,93.23
2022-11-16T04:19:04.084Z,93.35
2022-11-16T04:21:55.698Z,93.11
2022-11-16T04:24:28.477Z,93.23
2022-11-16T04:27:19.207Z,93.28
2022-11-16T04:29:47.495Z,93.25
2022-11-16T04:32:34.433Z,93.29
2022-11-16T04:35:20.655Z,93.26
2022-11-16T04:37:54.789Z,93.20
2022-11-16T04:40:25.439Z,92.92
2022-11-16T04:42:54.882Z,92.91
2022-11-16T04:45:46.762Z,92.81
2022-11-16T04:48:17.108Z,92.93
2022-11-16T04:50:45.564Z,92.98
2022-11-16T04:53:13.477Z,92.87
2022-11-16T04:55:41.510Z,92.89
2022-11-16T04:58:09.234Z,92.71
2022-11-16T05:00:36.670Z,92.58
2022-11-16T05:03:05.400Z,92.65
2022-11-16T05:05:33.312Z,92.64
2022-11-16T05:08:00.772Z,92.67
2022-11-16T05:10:28.678Z,92.74
2022-11-16T05:12:57.414Z,92.73
2022-11-16T05:15:25.089Z,92.61
2022-11-16T05:17:55.779Z,92.72
2022-11-16T05:20:42.414Z,92.45
2022-11-16T05:23:34.972Z,89.92
2022-11-16T05:26:03.443Z,89.92
2022-11-16T05:28:31.087Z,92.26
2022-11-16T05:30:58.613Z,92.36
2022-11-16T05:33:26.876Z,92.38
2022-11-16T05:35:54.370Z,92.32
2022-11-16T05:38:22.002Z,92.43
2022-11-16T05:40:49.906Z,92.39
2022-11-16T05:43:17.804Z,92.12
2022-11-16T05:45:46.333Z,91.92
2022-11-16T05:48:14.286Z,92.03
2022-11-16T05:50:43.210Z,91.96
2022-11-16T05:53:11.306Z,91.96
2022-11-16T05:55:39.373Z,92.22
2022-11-16T05:58:06.828Z,92.29
2022-11-16T06:00:34.757Z,92.11
2022-11-16T06:03:02.602Z,92.37
2022-11-16T06:05:32.481Z,92.24
2022-11-16T06:08:01.871Z,92.45
2022-11-16T06:10:30.776Z,92.57
2022-11-16T06:12:58.392Z,92.63
2022-11-16T06:15:26.186Z,92.95
2022-11-16T06:17:53.565Z,93.01
2022-11-16T06:20:21.177Z,93.09
2022-11-16T06:22:48.934Z,93.11
2022-11-16T06:25:16.593Z,93.06
2022-11-16T06:27:44.084Z,92.99
2022-11-16T06:30:12.358Z,93.06
2022-11-16T06:32:40.206Z,92.92
2022-11-16T06:35:08.778Z,92.81
2022-11-16T06:37:36.879Z,92.93
2022-11-16T06:40:04.784Z,92.81
2022-11-16T06:42:32.779Z,93.00
2022-11-16T06:45:00.867Z,93.05
2022-11-16T06:47:28.381Z,93.20
2022-11-16T06:49:55.859Z,93.40
2022-11-16T06:52:23.734Z,93.33
2022-11-16T06:54:51.255Z,93.49
2022-11-16T06:57:18.738Z,93.50
2022-11-16T06:59:46.605Z,93.47
2022-11-16T07:02:14.096Z,93.23
2022-11-16T07:04:42.023Z,93.15
2022-11-16T07:07:09.732Z,93.00
2022-11-16T07:09:37.367Z,92.99
2022-11-16T07:12:04.923Z,93.33
2022-11-16T07:14:34.062Z,93.34
2022-11-16T07:17:09.185Z,93.53
2022-11-16T07:19:37.437Z,93.22
2022-11-16T07:22:05.520Z,93.15
2022-11-16T07:24:33.522Z,93.14
2022-11-16T07:27:01.262Z,92.76
2022-11-16T07:29:29.854Z,92.46
2022-11-16T07:32:01.618Z,92.39
2022-11-16T07:34:37.394Z,92.65
2022-11-16T07:37:05.492Z,92.91
2022-11-16T07:39:33.456Z,92.52
2022-11-16T07:42:00.907Z,92.68
2022-11-16T07:44:28.731Z,92.78
2022-11-16T07:46:58.571Z,92.53
2022-11-16T07:49:25.991Z,92.07
2022-11-16T07:51:53.838Z,92.18
2022-11-16T07:54:21.570Z,92.15
2022-11-16T07:56:49.633Z,92.13
2022-11-16T07:59:18.311Z,91.90
2022-11-16T08:01:49.566Z,92.30
2022-11-16T08:04:17.687Z,92.37
2022-11-16T08:06:46.896Z,92.26
2022-11-16T08:09:14.646Z,92.57
2022-11-16T08:11:43.268Z,92.43
2022-11-16T08:14:11.940Z,92.11
2022-11-16T08:16:39.405Z,92.39
2022-11-16T08:19:07.489Z,91.74
2022-11-16T08:21:34.894Z,91.99
2022-11-16T08:24:03.010Z,91.83
2022-11-16T08:26:31.833Z,91.42
2022-11-16T08:28:59.566Z,91.42
2022-11-16T08:31:28.770Z,91.00
2022-11-16T08:34:00.278Z,91.15
2022-11-16T08:36:28.071Z,90.76
2022-11-16T08:38:55.488Z,90.72
2022-11-16T08:41:23.646Z,90.89
2022-11-16T08:43:53.215Z,90.32
2022-11-16T08:46:21.544Z,90.50
2022-11-16T08:48:54.616Z,90.19
2022-11-16T08:51:22.043Z,89.76
2022-11-16T08:53:58.694Z,89.51
2022-11-16T08:56:27.467Z,89.59
2022-11-16T08:58:58.625Z,88.41
2022-11-16T09:01:29.104Z,88.80
2022-11-16T09:03:57.310Z,88.30
2022-11-16T09:06:27.367Z,88.42
2022-11-16T09:08:54.923Z,88.09
2022-11-16T09:11:24.250Z,86.83
2022-11-16T09:13:53.497Z,85.11
2022-11-16T09:16:21.742Z,85.17
2022-11-16T09:18:51.238Z,86.22
2022-11-16T09:21:26.683Z,86.58
2022-11-16T09:23:55.945Z,85.66
2022-11-16T09:26:24.908Z,85.98
2022-11-16T09:29:00.093Z,85.91
2022-11-16T09:31:31.067Z,85.58
2022-11-16T09:33:59.092Z,85.03
2022-11-16T09:36:28.582Z,85.71
2022-11-16T09:42:12.786Z,86.15
2022-11-16T09:45:12.502Z,86.27
2022-11-16T09:47:49.888Z,86.94
2022-11-16T09:50:41.079Z,87.43
2022-11-16T09:53:53.184Z,87.62
2022-11-16T09:56:23.872Z,88.07
2022-11-16T09:59:13.561Z,88.12
2022-11-16T10:02:05.818Z,88.38
2022-11-16T10:04:38.417Z,88.49
2022-11-16T10:07:19.656Z,88.66
2022-11-16T10:09:48.045Z,89.57
2022-11-16T10:12:21.230Z,89.63
2022-11-16T10:15:32.074Z,89.65
2022-11-16T10:18:02.410Z,89.39
2022-11-16T10:20:48.373Z,89.25
2022-11-16T10:23:41.977Z,89.48
2022-11-16T10:26:21.636Z,90.02
2022-11-16T10:29:16.919Z,90.13
2022-11-16T10:32:11.726Z,89.98
2022-11-16T10:34:50.716Z,90.30
2022-11-16T10:37:19.557Z,90.42
2022-11-16T10:39:53.259Z,89.88
2022-11-16T10:42:34.234Z,90.05
2022-11-16T10:45:11.270Z,90.09
2022-11-16T10:47:44.728Z,89.86
2022-11-16T10:50:27.523Z,89.84
2022-11-16T10:52:55.228Z,89.74
2022-11-16T10:55:23.678Z,89.80
2022-11-16T10:58:05.629Z,90.37
2022-11-16T11:00:34.997Z,89.97
2022-11-16T11:03:02.552Z,90.45
2022-11-16T11:05:30.681Z,90.34
2022-11-16T11:08:26.150Z,89.99
2022-11-16T11:11:25.363Z,89.87
2022-11-16T11:14:14.647Z,89.96
2022-11-16T11:16:42.169Z,89.52
2022-11-16T11:19:26.471Z,89.25
2022-11-16T11:21:59.101Z,89.58
2022-11-16T11:24:45.376Z,89.04
2022-11-16T11:27:13.362Z,88.94
2022-11-16T11:29:43.156Z,89.17
2022-11-16T11:32:19.457Z,89.08
2022-11-16T11:34:54.023Z,89.32
2022-11-16T11:37:34.807Z,88.49
2022-11-16T11:40:28.596Z,88.54
2022-11-16T11:43:00.857Z,88.57
2022-11-16T11:45:50.492Z,89.08
2022-11-16T11:48:53.290Z,89.37
2022-11-16T11:51:40.088Z,89.02
2022-11-16T11:54:13.820Z,89.54
2022-11-16T11:56:41.520Z,89.44
2022-11-16T11:59:18.658Z,89.08
2022-11-16T12:01:55.146Z,89.23
2022-11-16T12:05:00.153Z,89.08
2022-11-16T12:07:48.645Z,88.59
2022-11-16T12:10:42.301Z,88.57
2022-11-16T12:13:34.726Z,89.26
2022-11-16T12:16:24.074Z,89.63
2022-11-16T12:19:00.366Z,88.80
2022-11-16T12:21:28.035Z,88.50
2022-11-16T12:24:19.896Z,88.64
2022-11-16T12:26:55.185Z,88.72
2022-11-16T12:29:31.327Z,88.61
2022-11-16T12:32:19.191Z,88.42
2022-11-16T12:34:55.463Z,87.89
2022-11-16T12:37:42.894Z,88.51
2022-11-16T12:40:34.237Z,88.42
2022-11-16T12:43:31.278Z,88.72
2022-11-16T12:46:01.755Z,88.70
2022-11-16T12:49:03.661Z,88.80
2022-11-16T12:51:43.228Z,88.73
2022-11-16T12:54:13.619Z,88.72
2022-11-16T12:57:20.919Z,89.26
2022-11-16T13:00:06.198Z,89.04
2022-11-16T13:02:33.630Z,88.96
2022-11-16T13:05:15.736Z,89.09
2022-11-16T13:07:48.146Z,89.25
2022-11-16T13:10:28.014Z,89.81
2022-11-16T13:15:52.730Z,90.09
2022-11-16T13:18:23.023Z,90.36
2022-11-16T13:21:19.080Z,90.40
2022-11-16T13:24:05.083Z,90.50
2022-11-16T13:26:55.860Z,90.69
2022-11-16T13:29:45.772Z,91.00
2022-11-16T13:32:13.487Z,91.65
2022-11-16T13:34:41.446Z,91.54
2022-11-16T13:37:36.604Z,91.55
2022-11-16T13:40:06.902Z,91.19
2022-11-16T13:42:57.465Z,91.46
2022-11-16T13:45:30.159Z,91.70
2022-11-16T13:47:58.650Z,91.95
2022-11-16T13:50:38.048Z,91.77
2022-11-16T13:56:06.205Z,91.82
2022-11-16T13:58:37.514Z,92.04
2022-11-16T14:01:17.056Z,91.90
2022-11-16T14:03:52.599Z,91.91
2022-11-16T14:06:19.949Z,91.88
2022-11-16T14:08:52.955Z,91.73
2022-11-16T14:11:34.549Z,92.17
2022-11-16T14:14:10.342Z,92.46
2022-11-16T14:16:47.887Z,92.51
2022-11-16T14:19:44.411Z,92.56
2022-11-16T14:22:21.012Z,92.41
2022-11-16T14:25:07.332Z,92.52
2022-11-16T14:27:53.780Z,92.71
2022-11-16T14:30:24.751Z,92.85
2022-11-16T14:32:57.382Z,92.90
2022-11-16T14:35:40.568Z,92.86
2022-11-16T14:38:21.709Z,92.89
2022-11-16T14:40:58.933Z,93.02
2022-11-16T14:43:30.304Z,93.10
2022-11-16T14:46:29.816Z,93.17
2022-11-16T14:49:01.348Z,93.20
2022-11-16T14:51:35.709Z,93.13
2022-11-16T14:54:13.169Z,92.87
2022-11-16T14:57:00.457Z,92.57
2022-11-16T14:59:29.651Z,92.50
2022-11-16T15:02:00.390Z,92.30
2022-11-16T15:04:27.910Z,92.20
2022-11-16T15:07:02.710Z,92.60
2022-11-16T15:09:34.502Z,92.94
2022-11-16T15:12:28.556Z,92.67
2022-11-16T15:15:00.918Z,92.83
2022-11-16T15:17:32.979Z,92.86
2022-11-16T15:20:14.222Z,92.66
2022-11-16T15:22:46.526Z,92.50
2022-11-16T15:25:23.187Z,92.45
2022-11-16T15:27:50.744Z,92.62
2022-11-16T15:30:25.010Z,92.80
2022-11-16T15:32:53.655Z,93.12
2022-11-16T15:35:25.319Z,93.24
2022-11-16T15:38:14.562Z,93.44
2022-11-16T15:40:50.448Z,93.51
2022-11-16T15:43:19.184Z,93.53
2022-11-16T15:45:47.521Z,93.39
2022-11-16T15:48:25.605Z,93.35
2022-11-16T15:51:17.801Z,93.57
2022-11-16T15:53:47.596Z,93.75
2022-11-16T15:56:27.916Z,93.68
2022-11-16T15:58:58.328Z,93.75
2022-11-16T16:01:26.545Z,93.67
2022-11-16T16:04:01.612Z,93.67
2022-11-16T16:06:47.505Z,93.73
2022-11-16T16:09:24.558Z,93.82
2022-11-16T16:11:55.020Z,93.91
2022-11-16T16:14:30.569Z,93.91
2022-11-16T16:16:59.871Z,93.97
2022-11-16T16:19:43.204Z,93.95
2022-11-16T16:22:25.462Z,94.28
2022-11-16T16:24:53.689Z,94.45
2022-11-16T16:27:23.622Z,94.63
2022-11-16T16:29:55.737Z,94.52
2022-11-16T16:32:27.440Z,94.55
2022-11-16T16:34:57.061Z,94.51
2022-11-16T16:37:29.328Z,94.55
2022-11-16T16:39:57.465Z,94.79
2022-11-16T16:42:25.816Z,94.89
2022-11-16T16:44:53.751Z,94.77
2022-11-16T16:47:21.246Z,94.92
2022-11-16T16:49:49.125Z,94.89
2022-11-16T16:52:17.028Z,94.93
2022-11-16T16:54:44.599Z,94.97
2022-11-16T16:57:17.319Z,94.75
2022-11-16T16:59:45.834Z,94.84
2022-11-16T17:02:14.040Z,95.04
2022-11-16T17:04:43.956Z,95.00
2022-11-16T17:07:11.472Z,95.07
2022-11-16T17:09:39.228Z,95.22
2022-11-16T17:12:06.906Z,95.12
2022-11-16T17:14:34.372Z,95.09
2022-11-16T17:17:02.289Z,94.77
2022-11-16T17:19:30.045Z,94.84
2022-11-16T17:21:58.272Z,94.89
2022-11-16T17:24:26.006Z,94.73
2022-11-16T17:26:53.523Z,94.14
2022-11-16T17:29:20.948Z,93.91
2022-11-16T17:31:48.933Z,93.74
2022-11-16T17:34:16.368Z,93.56
2022-11-16T17:36:44.567Z,93.35
2022-11-16T17:39:12.461Z,93.66
2022-11-16T17:41:39.900Z,93.65
2022-11-16T17:44:07.510Z,93.46
2022-11-16T17:46:35.686Z,93.66
2022-11-16T17:49:03.236Z,93.65
2022-11-16T17:51:30.836Z,93.62
2022-11-16T17:53:58.825Z,93.59
2022-11-16T17:56:27.819Z,93.47
2022-11-16T17:58:56.335Z,93.50
2022-11-16T18:01:25.417Z,93.30
2022-11-16T18:03:53.155Z,93.34
2022-11-16T18:06:22.520Z,93.36
2022-11-16T18:08:49.983Z,93.16
2022-11-16T18:11:23.904Z,93.03
2022-11-16T18:13:59.589Z,93.10
2022-11-16T18:16:30.083Z,93.04
2022-11-16T18:19:02.493Z,93.02
2022-11-16T18:21:31.332Z,92.81
2022-11-16T18:23:59.904Z,93.11
2022-11-16T18:26:27.381Z,93.07
2022-11-16T18:28:55.106Z,92.95
2022-11-16T18:31:24.543Z,93.06
2022-11-16T18:33:52.293Z,92.89
2022-11-16T18:36:20.967Z,92.79
2022-11-16T18:38:48.672Z,92.63
2022-11-16T18:41:22.652Z,92.68
2022-11-16T18:43:55.568Z,92.76
2022-11-16T18:46:25.723Z,92.68
2022-11-16T18:48:53.504Z,92.74
2022-11-16T18:51:22.534Z,92.51
2022-11-16T18:53:50.304Z,92.60
2022-11-16T18:56:18.919Z,92.56
2022-11-16T18:58:51.449Z,92.66
2022-11-16T19:01:25.209Z,92.63
2022-11-16T19:03:53.763Z,92.59
2022-11-16T19:06:22.738Z,92.44
2022-11-16T19:08:56.493Z,92.26
2022-11-16T19:11:24.418Z,92.23
2022-11-16T19:13:57.563Z,92.25
2022-11-16T19:16:25.535Z,92.21
2022-11-16T19:18:53.113Z,92.12
2022-11-16T19:21:22.046Z,92.21
2022-11-16T19:23:52.442Z,92.08
2022-11-16T19:26:22.294Z,92.10
2022-11-16T19:28:50.997Z,91.85
2022-11-16T19:31:24.851Z,91.96
2022-11-16T19:34:00.590Z,91.85
2022-11-16T19:36:29.470Z,91.92
2022-11-16T19:38:57.794Z,92.01
2022-11-16T19:41:27.062Z,91.83
2022-11-16T19:43:59.861Z,91.70
2022-11-16T19:46:30.468Z,91.58
2022-11-16T19:48:58.866Z,91.61
2022-11-16T19:51:28.460Z,91.55
2022-11-16T19:53:56.890Z,91.40
2022-11-16T19:56:24.734Z,91.48
2022-11-16T19:58:52.596Z,91.42
2022-11-16T20:01:23.701Z,91.26
2022-11-16T20:03:56.364Z,91.23
2022-11-16T20:06:30.291Z,91.26
2022-11-16T20:09:08.377Z,90.93
2022-11-16T20:11:37.546Z,90.81
2022-11-16T20:14:07.949Z,90.75
2022-11-16T20:16:39.377Z,90.68
2022-11-16T20:19:08.831Z,90.78
2022-11-16T20:21:39.075Z,90.64
2022-11-16T20:24:08.988Z,90.61
2022-11-16T20:26:40.417Z,90.79
2022-11-16T20:29:11.364Z,90.71
2022-11-16T20:31:42.487Z,90.91
2022-11-16T20:34:16.281Z,90.77
2022-11-16T20:36:46.234Z,90.95
2022-11-16T20:39:15.628Z,91.02
2022-11-16T20:41:44.063Z,90.85
2022-11-16T20:44:16.485Z,90.62
2022-11-16T20:46:45.272Z,90.64
2022-11-16T20:49:13.121Z,90.84
2022-11-16T20:51:40.827Z,90.95
2022-11-16T20:54:08.655Z,91.25
2022-11-16T20:56:36.081Z,91.26
2022-11-16T20:59:03.560Z,91.22
2022-11-16T21:01:34.190Z,91.25
2022-11-16T21:04:04.139Z,91.25
2022-11-16T21:06:32.959Z,90.99
2022-11-16T21:09:01.044Z,91.11
2022-11-16T21:11:30.772Z,91.04
2022-11-16T21:14:16.986Z,90.97
2022-11-16T21:16:45.131Z,91.18
2022-11-16T21:19:13.299Z,90.81
2022-11-16T21:21:41.052Z,90.16
2022-11-16T21:24:09.585Z,90.28
2022-11-16T21:26:37.721Z,90.25
2022-11-16T21:29:05.431Z,89.74
2022-11-16T21:31:36.640Z,89.72
2022-11-16T21:34:05.893Z,89.95
2022-11-16T21:36:33.862Z,89.63
2022-11-16T21:39:01.378Z,89.31
2022-11-16T21:41:29.130Z,88.65
2022-11-16T21:43:56.623Z,89.07
2022-11-16T21:46:25.896Z,89.03
2022-11-16T21:48:56.477Z,89.20
2022-11-16T21:51:26.403Z,89.10
2022-11-16T21:53:54.602Z,89.07
2022-11-16T21:56:26.288Z,89.04
2022-11-16T21:58:54.602Z,88.97
2022-11-16T22:01:23.371Z,88.96
2022-11-16T22:04:11.388Z,88.95
2022-11-16T22:06:57.974Z,88.94
2022-11-16T22:09:25.682Z,88.98
2022-11-16T22:11:53.173Z,88.80
2022-11-16T22:14:20.533Z,89.08
2022-11-16T22:16:48.236Z,88.85
2022-11-16T22:19:15.637Z,88.89
2022-11-16T22:21:43.098Z,89.02
2022-11-16T22:24:10.770Z,88.98
2022-11-16T22:26:39.894Z,88.56
2022-11-16T22:29:07.290Z,88.38
2022-11-16T22:31:36.135Z,88.19
2022-11-16T22:34:03.530Z,88.24
2022-11-16T22:36:30.917Z,88.24
2022-11-16T22:38:58.596Z,88.23
2022-11-16T22:41:25.981Z,88.18
2022-11-16T22:43:53.433Z,88.08
2022-11-16T22:46:21.129Z,88.01
2022-11-16T22:48:48.554Z,88.09
2022-11-16T22:51:22.090Z,87.86
2022-11-16T22:53:58.102Z,87.83
2022-11-16T22:56:26.405Z,87.85
2022-11-16T22:58:54.715Z,88.00
2022-11-16T23:01:22.383Z,88.03
2022-11-16T23:03:50.526Z,88.18
2022-11-16T23:06:18.490Z,88.34
2022-11-16T23:08:45.935Z,88.36
2022-11-16T23:11:34.582Z,88.31
2022-11-16T23:14:21.975Z,88.27
2022-11-16T23:16:49.995Z,88.25
2022-11-16T23:19:38.285Z,88.23
2022-11-16T23:22:25.847Z,88.07
2022-11-16T23:25:12.004Z,88.22
2022-11-16T23:27:45.422Z,88.30
2022-11-16T23:30:13.601Z,88.37
2022-11-16T23:32:41.929Z,88.37
2022-11-16T23:35:10.111Z,88.23
2022-11-16T23:37:50.698Z,88.04
2022-11-16T23:40:18.246Z,88.09
2022-11-16T23:43:04.688Z,87.84
2022-11-16T23:45:32.081Z,87.81
2022-11-16T23:47:59.760Z,87.66
2022-11-16T23:50:27.190Z,87.84
2022-11-16T23:52:54.600Z,87.83
2022-11-16T23:55:23.180Z,87.86
2022-11-16T23:57:50.969Z,87.90
